Skip Navigation Links
NOAA logo - Click to go to the NOAA homepage
NOAA's National Weather Service
Alaska Aviation Weather Unit
  NWS logo - Click to go to the NWS homepage
Left Navbar Graphic     17 AKDT = 01 GMT

   
NOAA is celebrating 200 years of science, service, and stewardship. Visit the NOAA 200th celebration Web site to learn more.
USA.gov is the U.S. Government's official Web portal to all Federal, state and local government Web resources and services.
Facebook
NWS on Facebook

Important Change Regarding the AAWU Web Presence

 

Over the last several months, the AAWU has been working to navigate its webpages to a nationally supported server. Security, as well as other needs, have necessitated the change.  In the process, we have made an effort to enhance the functionality of our website, as well as some of our products. As of June 27, 2017, aawu.arh.noaa.gov will be discontinued. The new AAWU web address is weather.gov/aawu. It is now live and will run in-parallel with the old site until it is discontinued. Please send any feedback or questions regarding the new webpages to nws.ar.aawu.webauthors@noaa.gov.  Thank you for your patience during this time of transition.
AAWU Home :: Display TAF Add Bookmark
TAF CYUB 260038Z 2601/2605 32010KT P6SM BKN090 OVC220 TEMPO 2601/2605
     P6SM -SHRA
    RMK NXT FCST WILL BE ISSUED AT 261445Z=

METAR CYUB 251900Z 16010KT 15SM BKN088 OVC240 20/12 A2986 RMK AS6CI2 SLP114 DENSITY ALT 800FT= METAR CYUB 252000Z 17008KT 15SM BKN100 BKN240 21/12 A2985 RMK AS5CI2 SLP111 DENSITY ALT 900FT= METAR CYUB 252100Z 19006KT 140V220 15SM FEW025 SCT100 BKN240 22/13 A2984 RMK SC1AC3CI2 SLP107 DENSITY ALT 1000FT= METAR CYUB 252200Z 17005KT 15SM FEW030 BKN090 BKN240 21/11 A2984 RMK SC1AC4CI1 SLP106 DENSITY ALT 900FT= METAR CYUB 252300Z 29009KT 15SM VCSH FEW030 BKN090 BKN220 20/15 A2984 RMK SC1AC5CI1 SLP105 DENSITY ALT 800FT= METAR CYUB 260000Z 32011KT 15SM FEW030 BKN090 BKN220 15/12 A2984 RMK SC2AC4CI1 SLP106 DENSITY ALT 200FT= METAR CYUB 260100Z 35008KT 15SM BKN060 BKN100 OVC220 14/12 A2985 RMK SC5AC2CI1 SLP109= SPECI CYUB 260137Z VRB08KT 10SM -RA FEW008 BKN050 OVC090 13/12 A2988 RMK SC2SC5AC1 PRESRR SLP119=
 Alaska TAF Map

NOAA's National Weather Service
Alaska Aviation Weather Unit
6930 Sand Lake Road
Anchorage, AK 99502-1845
Disclaimer
Credits
Glossary
Privacy Policy
About Us
Career Opportunities
Contact AAWU Internet Services Site last modified: April, 17th 2012